Terminal Aerodrome Forecast
Issued by NWS

Home | Current Version | Previous Version | Text Only | Print | Product List | Glossary On
Versions: 1 2 3 4 5 6 7 8 9 10 11 12
000
FTUS42 TJSJ 272344
TAFJBQ
TAF
TJBQ 272344Z 2800/2824 VRB05KT P6SM FEW030
     FM281330 02010KT P6SM FEW040
     FM282230 VRB05KT P6SM FEW030
      AMD NOT SKED 2802/2811=

USA.gov is the U.S. government's official web portal to all federal, state and local government web resources and services.